createdAt,value
2023-05-08T00:00:24.439Z,98.1
2023-05-08T00:12:24.534Z,96.8
2023-05-08T00:24:24.521Z,95.9
2023-05-08T00:36:24.484Z,96.0
2023-05-08T00:48:24.420Z,96.0
2023-05-08T01:00:24.522Z,96.0
2023-05-08T01:12:24.525Z,96.2
2023-05-08T01:24:24.441Z,96.6
2023-05-08T01:36:24.515Z,97.0
2023-05-08T01:48:24.455Z,96.5
2023-05-08T02:00:24.446Z,96.5
2023-05-08T02:12:24.490Z,96.0
2023-05-08T02:24:24.541Z,96.1
2023-05-08T02:36:24.513Z,96.3
2023-05-08T02:48:24.413Z,95.9
2023-05-08T03:00:24.432Z,96.2
2023-05-08T03:12:24.422Z,95.8
2023-05-08T03:24:25.309Z,95.6
2023-05-08T03:36:24.418Z,95.7
2023-05-08T03:48:24.415Z,96.1
2023-05-08T04:00:24.463Z,95.8
2023-05-08T04:12:24.517Z,95.8
2023-05-08T04:24:24.448Z,95.0
2023-05-08T04:36:24.547Z,94.3
2023-05-08T04:48:24.497Z,94.8
2023-05-08T05:00:24.442Z,95.1
2023-05-08T05:12:24.481Z,95.2
2023-05-08T05:24:24.433Z,95.8
2023-05-08T05:36:24.536Z,96.1
2023-05-08T05:48:24.526Z,96.7
2023-05-08T06:00:24.488Z,96.5
2023-05-08T06:12:24.539Z,96.5
2023-05-08T06:24:24.444Z,97.0
2023-05-08T06:36:24.482Z,96.5
2023-05-08T06:48:24.449Z,95.0
2023-05-08T07:00:24.527Z,94.9
2023-05-08T07:12:24.538Z,93.4
2023-05-08T07:24:24.432Z,94.4
2023-05-08T07:36:24.542Z,94.9
2023-05-08T07:48:24.494Z,94.0
2023-05-08T08:00:24.471Z,94.2
2023-05-08T08:12:24.534Z,94.3
2023-05-08T08:24:24.435Z,94.6
2023-05-08T08:36:24.426Z,95.0
2023-05-08T08:48:24.527Z,94.9
2023-05-08T09:00:24.430Z,94.5
2023-05-08T09:12:24.455Z,93.4
2023-05-08T09:24:24.443Z,90.4
2023-05-08T09:36:24.441Z,91.3
2023-05-08T09:48:24.506Z,85.6
2023-05-08T10:00:24.476Z,89.7
2023-05-08T10:12:24.429Z,90.5
2023-05-08T10:24:24.553Z,91.2
2023-05-08T10:36:24.436Z,91.1
2023-05-08T10:48:24.539Z,90.0
2023-05-08T11:00:24.447Z,89.4
2023-05-08T11:12:24.529Z,89.6
2023-05-08T11:24:24.528Z,88.0
2023-05-08T11:36:24.716Z,86.6
2023-05-08T11:48:24.519Z,86.5
2023-05-08T12:00:24.623Z,86.0
2023-05-08T12:12:24.424Z,85.7
2023-05-08T12:24:24.528Z,90.4
2023-05-08T12:36:24.532Z,90.7
2023-05-08T12:48:24.536Z,90.9
2023-05-08T13:00:24.534Z,91.3
2023-05-08T13:12:24.432Z,93.1
2023-05-08T13:24:24.481Z,90.3
2023-05-08T13:36:24.459Z,90.7
2023-05-08T13:48:24.491Z,89.3
2023-05-08T14:00:25.995Z,89.4
2023-05-08T14:12:24.527Z,88.3
2023-05-08T14:24:24.519Z,88.1
2023-05-08T14:36:24.455Z,85.6
2023-05-08T14:48:24.550Z,85.5
2023-05-08T15:00:24.477Z,85.6
2023-05-08T15:12:24.528Z,86.2
2023-05-08T15:24:24.418Z,86.3
2023-05-08T15:36:25.372Z,83.4
2023-05-08T15:48:24.495Z,82.6
2023-05-08T16:00:25.230Z,83.5
2023-05-08T16:12:24.552Z,82.5
2023-05-08T16:24:24.478Z,83.3
2023-05-08T16:36:24.496Z,83.2
2023-05-08T16:48:24.426Z,84.5
2023-05-08T17:00:24.436Z,83.6
2023-05-08T17:12:24.541Z,83.3
2023-05-08T17:24:24.522Z,85.5
2023-05-08T17:36:24.554Z,85.5
2023-05-08T17:48:24.547Z,88.0
2023-05-08T18:00:24.529Z,89.0
2023-05-08T18:12:24.429Z,89.7
2023-05-08T18:24:24.565Z,91.1
2023-05-08T18:36:24.462Z,91.1
2023-05-08T18:48:24.431Z,91.5
2023-05-08T19:00:24.534Z,92.2
2023-05-08T19:12:24.446Z,92.6
2023-05-08T19:24:24.535Z,93.7
2023-05-08T19:36:24.442Z,94.6
2023-05-08T19:48:24.600Z,95.1
2023-05-08T20:00:24.547Z,95.0
2023-05-08T20:12:24.427Z,95.6
2023-05-08T20:24:24.498Z,96.0
2023-05-08T20:36:24.503Z,95.9
2023-05-08T20:48:24.539Z,96.4
2023-05-08T21:00:24.542Z,96.7
2023-05-08T21:12:24.433Z,97.1
2023-05-08T21:24:24.441Z,97.2
2023-05-08T21:36:24.476Z,97.1
2023-05-08T21:48:24.482Z,97.2
2023-05-08T22:00:24.914Z,96.7
2023-05-08T22:12:24.418Z,96.6
2023-05-08T22:24:24.459Z,96.6
2023-05-08T22:36:24.670Z,96.6
2023-05-08T22:48:24.552Z,96.3
2023-05-08T23:00:24.448Z,96.4
2023-05-08T23:12:24.478Z,96.5
2023-05-08T23:24:24.778Z,96.6
2023-05-08T23:36:24.506Z,96.6
2023-05-08T23:48:24.519Z,96.7
